createdAt,value
2018-11-06T00:00:19.070Z,41.53
2018-11-06T00:02:52.462Z,43.30
2018-11-06T00:05:21.976Z,94.30
2018-11-06T00:07:51.219Z,46.23
2018-11-06T00:10:20.428Z,39.83
2018-11-06T00:12:50.161Z,36.40
2018-11-06T00:15:19.372Z,73.67
2018-11-06T00:17:48.941Z,40.03
2018-11-06T00:20:18.161Z,35.53
2018-11-06T00:22:47.241Z,199.97
2018-11-06T00:25:16.359Z,66.27
2018-11-06T00:27:45.709Z,61.53
2018-11-06T00:30:15.253Z,39.83
2018-11-06T00:32:44.501Z,89.73
2018-11-06T00:35:14.945Z,44.17
2018-11-06T00:37:44.885Z,48.90
2018-11-06T00:40:14.152Z,59.00
2018-11-06T00:42:43.466Z,48.00
2018-11-06T00:45:14.629Z,44.17
2018-11-06T00:47:43.772Z,59.33
2018-11-06T00:50:14.009Z,72.90
2018-11-06T00:52:44.004Z,58.83
2018-11-06T00:55:13.151Z,43.27
2018-11-06T00:57:43.737Z,62.83
2018-11-06T01:00:15.206Z,51.73
2018-11-06T01:02:44.562Z,72.20
2018-11-06T01:05:14.621Z,50.73
2018-11-06T01:07:44.595Z,55.77
2018-11-06T01:10:14.139Z,174.13
2018-11-06T01:12:43.227Z,45.17
2018-11-06T01:15:13.612Z,92.80
2018-11-06T01:17:44.194Z,114.47
2018-11-06T01:20:15.309Z,363.10
2018-11-06T01:22:44.608Z,108.57
2018-11-06T01:25:14.685Z,238.47
2018-11-06T01:27:43.824Z,91.10
2018-11-06T01:30:16.309Z,156.03
2018-11-06T01:32:46.078Z,90.50
2018-11-06T01:35:15.846Z,63.13
2018-11-06T01:37:46.064Z,50.10
2018-11-06T01:40:16.368Z,75.57
2018-11-06T01:42:45.826Z,53.10
2018-11-06T01:45:16.440Z,113.17
2018-11-06T01:47:45.534Z,93.73
2018-11-06T01:50:15.882Z,60.47
2018-11-06T01:52:46.151Z,53.00
2018-11-06T01:55:15.258Z,109.47
2018-11-06T01:57:44.401Z,48.73
2018-11-06T02:00:15.807Z,124.10
2018-11-06T02:02:45.002Z,50.70
2018-11-06T02:05:15.269Z,71.60
2018-11-06T02:07:45.930Z,53.13
2018-11-06T02:10:15.624Z,101.27
2018-11-06T02:12:45.564Z,99.03
2018-11-06T02:15:14.979Z,108.23
2018-11-06T02:17:44.841Z,140.47
2018-11-06T02:20:14.789Z,93.20
2018-11-06T02:22:44.861Z,44.10
2018-11-06T02:25:14.226Z,70.77
2018-11-06T02:27:43.324Z,92.30
2018-11-06T02:30:14.200Z,66.67
2018-11-06T02:32:44.044Z,60.50
2018-11-06T02:35:13.339Z,104.30
2018-11-06T02:37:43.087Z,161.13
2018-11-06T02:40:13.485Z,71.53
2018-11-06T02:42:43.301Z,107.97
2018-11-06T02:45:13.146Z,127.83
2018-11-06T02:47:42.724Z,97.27
2018-11-06T02:50:12.753Z,89.30
2018-11-06T02:52:42.598Z,78.40
2018-11-06T02:55:12.125Z,103.87
2018-11-06T02:57:41.968Z,88.30
2018-11-06T03:00:16.874Z,52.13
2018-11-06T03:02:47.267Z,179.63
2018-11-06T03:05:16.658Z,78.87
2018-11-06T03:07:45.779Z,53.37
2018-11-06T03:10:16.267Z,73.50
2018-11-06T03:12:45.640Z,128.23
2018-11-06T03:15:15.535Z,68.40
2018-11-06T03:17:44.919Z,87.13
2018-11-06T03:20:14.646Z,95.10
2018-11-06T03:22:44.332Z,80.27
2018-11-06T03:25:13.645Z,45.77
2018-11-06T03:27:42.737Z,40.70
2018-11-06T03:30:14.511Z,76.70
2018-11-06T03:32:43.770Z,135.07
2018-11-06T03:35:13.767Z,61.67
2018-11-06T03:37:43.077Z,39.00
2018-11-06T03:40:12.630Z,90.43
2018-11-06T03:42:42.969Z,74.43
2018-11-06T03:45:13.047Z,72.60
2018-11-06T03:47:42.171Z,121.90
2018-11-06T03:50:12.458Z,120.60
2018-11-06T03:52:41.795Z,48.80
2018-11-06T03:55:10.965Z,233.67
2018-11-06T03:57:40.113Z,67.80
2018-11-06T04:00:12.935Z,100.07
2018-11-06T04:02:43.383Z,167.63
2018-11-06T04:05:12.935Z,148.47
2018-11-06T04:07:42.283Z,188.47
2018-11-06T04:10:12.336Z,135.23
2018-11-06T04:12:42.021Z,230.77
2018-11-06T04:15:12.666Z,195.37
2018-11-06T04:17:42.574Z,278.57
2018-11-06T04:20:11.825Z,103.83
2018-11-06T04:22:42.099Z,59.57
2018-11-06T04:25:11.211Z,36.40
2018-11-06T04:27:40.413Z,44.97
2018-11-06T04:30:11.564Z,53.37
2018-11-06T04:32:41.293Z,69.07
2018-11-06T04:35:11.188Z,192.57
2018-11-06T04:37:41.209Z,149.87
2018-11-06T04:40:12.380Z,48.63
2018-11-06T04:42:42.693Z,99.73
2018-11-06T04:45:12.623Z,117.13
2018-11-06T04:47:41.959Z,115.50
2018-11-06T04:50:11.840Z,113.57
2018-11-06T04:52:41.500Z,55.13
2018-11-06T04:55:12.451Z,38.10
2018-11-06T04:57:41.919Z,36.40
2018-11-06T05:00:13.050Z,354.93
2018-11-06T05:02:42.616Z,285.40
2018-11-06T05:05:12.195Z,243.13
2018-11-06T05:07:41.669Z,65.37
2018-11-06T05:10:14.197Z,33.60
2018-11-06T05:12:43.985Z,120.57
2018-11-06T05:15:14.593Z,65.70
2018-11-06T05:17:43.787Z,433.73
2018-11-06T05:20:16.199Z,149.83
2018-11-06T05:22:46.072Z,65.07
2018-11-06T05:25:15.689Z,109.83
2018-11-06T05:27:45.141Z,108.63
2018-11-06T05:30:14.269Z,84.57
2018-11-06T05:32:44.167Z,198.20
2018-11-06T05:35:14.077Z,30.03
2018-11-06T05:37:43.332Z,171.33
2018-11-06T05:41:22.229Z,115.87
2018-11-06T05:43:51.476Z,93.70
2018-11-06T05:46:20.581Z,113.90
2018-11-06T05:48:49.847Z,104.90
2018-11-06T05:51:19.195Z,126.03
2018-11-06T05:53:48.300Z,32.10
2018-11-06T05:56:17.797Z,37.27
2018-11-06T05:58:46.896Z,53.67
2018-11-06T06:01:15.957Z,197.20
2018-11-06T06:03:45.146Z,174.90
2018-11-06T06:06:14.287Z,193.20
2018-11-06T06:08:43.383Z,166.10
2018-11-06T06:11:13.058Z,271.43
2018-11-06T06:13:42.111Z,145.50
2018-11-06T06:16:11.273Z,352.37
2018-11-06T06:18:40.876Z,252.50
2018-11-06T06:21:09.969Z,79.00
2018-11-06T06:23:39.032Z,109.27
2018-11-06T06:26:08.241Z,332.27
2018-11-06T06:28:37.418Z,151.77
2018-11-06T06:31:06.453Z,144.13
2018-11-06T06:33:35.751Z,52.47
2018-11-06T06:36:04.927Z,36.27
2018-11-06T06:38:34.034Z,92.77
2018-11-06T06:41:03.424Z,98.80
2018-11-06T06:43:32.405Z,76.40
2018-11-06T06:46:01.469Z,38.70
2018-11-06T06:48:30.939Z,71.93
2018-11-06T06:51:00.081Z,70.93
2018-11-06T06:53:29.197Z,287.03
2018-11-06T06:55:58.555Z,70.50
2018-11-06T06:58:27.692Z,45.20
2018-11-06T07:00:56.767Z,60.23
2018-11-06T07:03:26.131Z,202.87
2018-11-06T07:05:55.309Z,204.50
2018-11-06T07:08:24.380Z,65.53
2018-11-06T07:10:53.752Z,435.43
2018-11-06T07:13:23.542Z,246.30
2018-11-06T07:15:52.607Z,99.57
2018-11-06T07:18:22.114Z,135.90
2018-11-06T07:20:51.141Z,283.70
2018-11-06T07:23:20.255Z,229.87
2018-11-06T07:25:49.829Z,319.30
2018-11-06T07:28:18.894Z,49.17
2018-11-06T07:30:47.976Z,157.97
2018-11-06T07:33:17.419Z,103.43
2018-11-06T07:35:46.712Z,105.63
2018-11-06T07:38:15.602Z,40.07
2018-11-06T07:40:45.050Z,63.53
2018-11-06T07:43:14.134Z,239.13
2018-11-06T07:45:43.213Z,72.37
2018-11-06T07:48:12.787Z,77.80
2018-11-06T07:50:41.857Z,305.73
2018-11-06T07:53:10.935Z,215.17
2018-11-06T07:55:40.274Z,195.53
2018-11-06T07:58:09.312Z,191.70
2018-11-06T08:00:38.404Z,56.10
2018-11-06T08:03:08.103Z,105.50
2018-11-06T08:05:37.213Z,107.67
2018-11-06T08:08:06.341Z,239.43
2018-11-06T08:10:35.484Z,62.93
2018-11-06T08:13:05.047Z,64.20
2018-11-06T08:15:34.111Z,103.27
2018-11-06T08:18:03.603Z,34.03
2018-11-06T08:20:33.294Z,32.83
2018-11-06T08:23:02.417Z,102.43
2018-11-06T08:25:31.789Z,45.30
2018-11-06T08:28:00.838Z,33.80
2018-11-06T08:30:29.944Z,106.80
2018-11-06T08:32:59.402Z,49.33
2018-11-06T08:35:28.537Z,26.57
2018-11-06T08:37:57.612Z,48.83
2018-11-06T08:40:26.981Z,52.63
2018-11-06T08:42:56.059Z,31.20
2018-11-06T08:45:25.147Z,45.87
2018-11-06T08:47:54.584Z,99.93
2018-11-06T08:50:23.647Z,38.67
2018-11-06T08:52:52.796Z,45.43
2018-11-06T08:55:22.177Z,43.40
2018-11-06T08:57:51.226Z,33.90
2018-11-06T09:00:20.360Z,39.73
2018-11-06T09:02:50.075Z,45.97
2018-11-06T09:05:19.425Z,50.43
2018-11-06T09:07:48.485Z,40.57
2018-11-06T09:10:18.271Z,31.53
2018-11-06T09:12:48.148Z,31.83
2018-11-06T09:15:17.672Z,31.40
2018-11-06T09:17:47.099Z,32.67
2018-11-06T09:20:16.949Z,44.13
2018-11-06T09:22:46.491Z,40.37
2018-11-06T09:25:17.177Z,31.00
2018-11-06T09:27:46.280Z,29.50
2018-11-06T09:30:16.968Z,27.63
2018-11-06T09:32:46.036Z,29.43
2018-11-06T09:35:15.680Z,41.63
2018-11-06T09:37:46.096Z,30.50
2018-11-06T09:40:17.557Z,30.07
2018-11-06T09:42:47.167Z,24.97
2018-11-06T09:45:16.392Z,28.40
2018-11-06T09:47:45.507Z,25.33
2018-11-06T09:50:16.294Z,26.43
2018-11-06T09:52:46.027Z,25.70
2018-11-06T09:55:15.858Z,22.60
2018-11-06T09:57:45.730Z,25.27
2018-11-06T10:00:16.701Z,23.20
2018-11-06T10:02:45.766Z,29.93
2018-11-06T10:05:15.778Z,36.40
2018-11-06T10:07:44.891Z,31.60
2018-11-06T10:10:15.643Z,26.10
2018-11-06T10:12:45.144Z,29.00
2018-11-06T10:15:16.790Z,27.57
2018-11-06T10:17:47.503Z,33.03
2018-11-06T10:20:17.681Z,32.80
2018-11-06T10:22:46.780Z,29.57
2018-11-06T10:25:16.033Z,28.00
2018-11-06T10:27:45.119Z,27.77
2018-11-06T10:30:16.291Z,30.07
2018-11-06T10:32:45.755Z,35.73
2018-11-06T10:35:14.900Z,41.47
2018-11-06T10:37:44.724Z,44.57
2018-11-06T10:40:17.345Z,42.83
2018-11-06T10:42:46.842Z,40.70
2018-11-06T10:45:16.532Z,52.30
2018-11-06T10:47:46.465Z,30.40
2018-11-06T10:50:16.312Z,34.40
2018-11-06T10:52:46.189Z,36.67
2018-11-06T10:55:15.783Z,48.83
2018-11-06T10:57:44.862Z,35.43
2018-11-06T11:00:20.045Z,42.37
2018-11-06T11:02:54.573Z,31.97
2018-11-06T11:05:26.015Z,33.30
2018-11-06T11:07:55.116Z,37.10
2018-11-06T11:10:24.320Z,33.97
2018-11-06T11:12:53.913Z,38.40
2018-11-06T11:15:23.053Z,38.87
2018-11-06T11:17:52.144Z,36.33
2018-11-06T11:20:21.629Z,43.53
2018-11-06T11:22:51.377Z,35.97
2018-11-06T11:25:20.470Z,36.57
2018-11-06T11:27:50.015Z,37.50
2018-11-06T11:30:19.143Z,32.33
2018-11-06T11:32:48.945Z,32.90
2018-11-06T11:35:18.534Z,36.17
2018-11-06T11:37:47.773Z,36.40
2018-11-06T11:40:17.190Z,28.80
2018-11-06T11:42:46.538Z,30.23
2018-11-06T11:45:16.193Z,29.73
2018-11-06T11:47:45.290Z,25.30
2018-11-06T11:50:15.875Z,26.53
2018-11-06T11:52:45.047Z,27.53
2018-11-06T11:55:14.259Z,26.30
2018-11-06T11:57:43.776Z,25.73
2018-11-06T12:00:16.375Z,26.70
2018-11-06T12:02:46.177Z,23.90
2018-11-06T12:05:15.360Z,25.53
2018-11-06T12:07:45.224Z,23.37
2018-11-06T12:10:14.591Z,24.27
2018-11-06T12:12:43.656Z,22.73
2018-11-06T12:15:14.672Z,20.77
2018-11-06T12:17:45.224Z,27.80
2018-11-06T12:20:14.885Z,23.67
2018-11-06T12:22:45.692Z,24.30
2018-11-06T12:25:15.954Z,32.30
2018-11-06T12:27:44.952Z,21.27
2018-11-06T12:30:15.365Z,30.13
2018-11-06T12:32:45.112Z,26.17
2018-11-06T12:35:14.572Z,24.20
2018-11-06T12:37:43.666Z,27.47
2018-11-06T12:40:13.848Z,27.17
2018-11-06T12:42:43.140Z,36.70
2018-11-06T12:45:14.305Z,24.50
2018-11-06T12:47:44.112Z,23.80
2018-11-06T12:50:13.966Z,28.40
2018-11-06T12:52:43.480Z,22.80
2018-11-06T12:55:14.549Z,24.87
2018-11-06T12:57:43.658Z,23.30
2018-11-06T13:00:20.640Z,23.27
2018-11-06T13:02:49.923Z,23.80
2018-11-06T13:05:19.061Z,26.03
2018-11-06T13:07:48.736Z,23.30
2018-11-06T13:10:17.852Z,24.37
2018-11-06T13:12:47.054Z,23.40
2018-11-06T13:15:17.870Z,24.80
2018-11-06T13:17:46.503Z,28.40
2018-11-06T13:20:16.576Z,21.50
2018-11-06T13:22:46.694Z,30.20
2018-11-06T13:25:15.830Z,27.10
2018-11-06T13:27:44.936Z,26.47
2018-11-06T13:30:17.842Z,25.67
2018-11-06T13:32:47.641Z,25.37
2018-11-06T13:35:18.159Z,24.17
2018-11-06T13:37:47.720Z,23.20
2018-11-06T13:40:17.355Z,21.97
2018-11-06T13:42:47.035Z,29.93
2018-11-06T13:45:22.195Z,23.90
2018-11-06T13:47:51.141Z,25.43
2018-11-06T13:50:20.295Z,25.40
2018-11-06T13:52:49.963Z,27.30
2018-11-06T13:55:19.051Z,26.63
2018-11-06T13:57:48.140Z,22.40
2018-11-06T14:00:19.887Z,30.00
2018-11-06T14:02:49.104Z,32.23
2018-11-06T14:05:18.649Z,25.40
2018-11-06T14:07:48.398Z,25.77
2018-11-06T14:10:17.618Z,19.73
2018-11-06T14:12:46.903Z,24.50
2018-11-06T14:15:16.612Z,20.30
2018-11-06T14:17:45.680Z,20.37
2018-11-06T14:20:15.905Z,17.13
2018-11-06T14:22:45.861Z,19.90
2018-11-06T14:25:15.003Z,21.97
2018-11-06T14:27:44.141Z,23.43
2018-11-06T14:30:17.133Z,17.97
2018-11-06T14:32:46.789Z,23.07
2018-11-06T14:35:16.963Z,26.80
2018-11-06T14:37:46.811Z,20.67
2018-11-06T14:40:16.651Z,20.90
2018-11-06T14:42:46.327Z,15.57
2018-11-06T14:45:17.393Z,18.67
2018-11-06T14:47:46.626Z,24.20
2018-11-06T14:50:15.825Z,19.40
2018-11-06T14:52:45.641Z,20.57
2018-11-06T14:55:15.591Z,18.10
2018-11-06T14:57:44.741Z,20.73
2018-11-06T15:00:16.599Z,18.00
2018-11-06T15:02:47.453Z,13.40
2018-11-06T15:05:17.499Z,16.03
2018-11-06T15:07:46.693Z,15.70
2018-11-06T15:10:15.936Z,16.63
2018-11-06T15:12:45.766Z,18.07
2018-11-06T15:15:16.138Z,14.40
2018-11-06T15:17:47.192Z,16.83
2018-11-06T15:20:18.493Z,17.40
2018-11-06T15:22:48.152Z,19.27
2018-11-06T15:25:17.670Z,18.10
2018-11-06T15:27:46.789Z,26.47
2018-11-06T15:30:17.140Z,24.83
2018-11-06T15:32:46.299Z,19.20
2018-11-06T15:35:16.881Z,22.13
2018-11-06T15:37:46.085Z,21.67
2018-11-06T15:40:16.815Z,28.53
2018-11-06T15:42:46.243Z,32.10
2018-11-06T15:45:16.898Z,23.57
2018-11-06T15:47:46.420Z,25.93
2018-11-06T15:50:16.903Z,22.20
2018-11-06T15:52:47.875Z,21.20
2018-11-06T15:55:17.680Z,23.10
2018-11-06T15:57:47.492Z,23.47
2018-11-06T16:00:18.903Z,20.97
2018-11-06T16:02:48.628Z,15.40
2018-11-06T16:05:17.846Z,10.67
2018-11-06T16:07:48.416Z,10.80
2018-11-06T16:10:18.733Z,10.70
2018-11-06T16:12:48.736Z,11.87
2018-11-06T16:15:18.204Z,10.17
2018-11-06T16:17:47.805Z,14.40
2018-11-06T16:20:18.322Z,8.77
2018-11-06T16:22:47.603Z,8.43
2018-11-06T16:25:17.777Z,7.00
2018-11-06T16:27:47.136Z,6.87
2018-11-06T16:30:17.957Z,8.13
2018-11-06T16:32:47.115Z,10.03
2018-11-06T16:35:17.511Z,8.30
2018-11-06T16:37:47.067Z,5.30
2018-11-06T16:40:16.606Z,5.73
2018-11-06T16:42:46.435Z,6.73
2018-11-06T16:45:18.285Z,4.43
2018-11-06T16:47:48.389Z,7.50
2018-11-06T16:50:18.359Z,5.00
2018-11-06T16:52:47.772Z,5.90
2018-11-06T16:55:17.605Z,5.63
2018-11-06T16:57:46.929Z,6.80
2018-11-06T17:00:18.671Z,6.63
2018-11-06T17:02:47.593Z,7.83
2018-11-06T17:05:16.715Z,8.77
2018-11-06T17:07:46.662Z,4.40
2018-11-06T17:10:16.498Z,3.90
2018-11-06T17:12:46.689Z,3.17
2018-11-06T17:15:19.361Z,4.90
2018-11-06T17:17:50.340Z,2.40
2018-11-06T17:20:20.558Z,2.83
2018-11-06T17:22:49.776Z,3.47
2018-11-06T17:25:20.356Z,2.53
2018-11-06T17:27:49.779Z,2.43
2018-11-06T17:30:19.587Z,7.97
2018-11-06T17:32:48.876Z,2.30
2018-11-06T17:35:19.741Z,3.57
2018-11-06T17:37:49.091Z,11.30
2018-11-06T17:40:19.575Z,2.70
2018-11-06T17:42:49.170Z,2.00
2018-11-06T17:45:20.039Z,4.20
2018-11-06T17:47:49.204Z,6.67
2018-11-06T17:50:18.760Z,2.00
2018-11-06T17:52:48.056Z,1.90
2018-11-06T17:55:22.120Z,5.50
2018-11-06T17:57:51.229Z,7.20
2018-11-06T18:00:22.272Z,2.20
2018-11-06T18:02:51.667Z,3.80
2018-11-06T18:05:22.277Z,3.00
2018-11-06T18:07:51.657Z,2.80
2018-11-06T18:10:21.513Z,2.00
2018-11-06T18:12:50.717Z,2.20
2018-11-06T18:15:20.536Z,1.80
2018-11-06T18:17:50.061Z,1.60
2018-11-06T18:20:19.896Z,1.70
2018-11-06T18:22:49.684Z,1.60
2018-11-06T18:25:19.060Z,1.83
2018-11-06T18:27:48.871Z,2.83
2018-11-06T18:30:19.707Z,1.80
2018-11-06T18:32:48.985Z,1.73
2018-11-06T18:35:18.915Z,2.40
2018-11-06T18:37:48.519Z,3.00
2018-11-06T18:40:19.055Z,1.80
2018-11-06T18:42:49.268Z,2.00
2018-11-06T18:45:18.663Z,1.90
2018-11-06T18:47:48.320Z,1.67
2018-11-06T18:50:18.856Z,2.17
2018-11-06T18:52:49.229Z,7.70
2018-11-06T18:55:19.477Z,1.70
2018-11-06T18:57:49.090Z,1.77
2018-11-06T19:00:19.499Z,2.43
2018-11-06T19:02:50.112Z,2.50
2018-11-06T19:05:21.059Z,1.90
2018-11-06T19:07:50.177Z,2.70
2018-11-06T19:10:19.881Z,1.70
2018-11-06T19:12:49.092Z,8.33
2018-11-06T19:15:19.617Z,2.93
2018-11-06T19:17:49.458Z,2.07
2018-11-06T19:20:18.755Z,2.03
2018-11-06T19:22:48.166Z,2.03
2018-11-06T19:25:17.677Z,2.07
2018-11-06T19:27:46.889Z,8.40
2018-11-06T19:30:17.458Z,2.40
2018-11-06T19:32:46.769Z,2.80
2018-11-06T19:35:15.550Z,2.83
2018-11-06T19:37:44.713Z,4.67
2018-11-06T19:40:16.241Z,1.77
2018-11-06T19:42:46.215Z,3.73
2018-11-06T19:45:15.461Z,3.50
2018-11-06T19:47:44.901Z,2.83
2018-11-06T19:50:15.318Z,2.83
2018-11-06T19:52:44.521Z,1.93
2018-11-06T19:55:14.770Z,6.80
2018-11-06T19:57:43.869Z,3.43
2018-11-06T20:00:17.507Z,1.73
2018-11-06T20:02:47.770Z,2.90
2018-11-06T20:05:16.926Z,1.30
2018-11-06T20:07:47.869Z,1.47
2018-11-06T20:10:18.443Z,3.10
2018-11-06T20:12:48.615Z,1.50
2018-11-06T20:15:18.241Z,1.80
2018-11-06T20:17:47.548Z,5.43
2018-11-06T20:20:18.309Z,2.30
2018-11-06T20:22:47.567Z,1.60
2018-11-06T20:25:16.715Z,3.83
2018-11-06T20:27:45.853Z,1.50
2018-11-06T20:30:17.179Z,6.20
2018-11-06T20:32:46.271Z,3.90
2018-11-06T20:35:15.668Z,1.53
2018-11-06T20:37:45.323Z,1.80
2018-11-06T20:40:17.316Z,2.10
2018-11-06T20:42:47.089Z,1.60
2018-11-06T20:45:17.161Z,1.63
2018-11-06T20:47:46.321Z,1.50
2018-11-06T20:50:17.625Z,5.03
2018-11-06T20:52:46.808Z,1.30
2018-11-06T20:55:16.565Z,1.80
2018-11-06T20:57:46.589Z,2.13
2018-11-06T21:00:23.609Z,2.10
2018-11-06T21:02:54.151Z,2.07
2018-11-06T21:05:23.297Z,2.30
2018-11-06T21:07:52.524Z,3.10
2018-11-06T21:10:23.995Z,3.50
2018-11-06T21:12:53.125Z,3.50
2018-11-06T21:15:22.207Z,3.20
2018-11-06T21:17:51.550Z,2.93
2018-11-06T21:20:20.623Z,4.20
2018-11-06T21:22:49.599Z,6.70
2018-11-06T21:25:19.324Z,5.57
2018-11-06T21:27:48.300Z,6.13
2018-11-06T21:30:19.633Z,5.27
2018-11-06T21:32:49.967Z,7.83
2018-11-06T21:35:19.223Z,10.27
2018-11-06T21:37:48.265Z,8.20
2018-11-06T21:40:18.929Z,12.13
2018-11-06T21:42:48.941Z,17.93
2018-11-06T21:45:18.465Z,16.43
2018-11-06T21:47:48.663Z,8.83
2018-11-06T21:50:18.499Z,16.27
2018-11-06T21:52:47.599Z,9.07
2018-11-06T21:55:17.944Z,7.90
2018-11-06T21:57:47.029Z,8.50
2018-11-06T22:00:18.409Z,8.90
2018-11-06T22:02:49.799Z,5.87
2018-11-06T22:05:20.241Z,10.00
2018-11-06T22:07:49.737Z,5.77
2018-11-06T22:10:24.141Z,6.60
2018-11-06T22:12:54.062Z,6.77
2018-11-06T22:15:23.161Z,5.80
2018-11-06T22:17:52.631Z,4.60
2018-11-06T22:20:21.750Z,4.00
2018-11-06T22:22:50.913Z,4.30
2018-11-06T22:25:20.539Z,4.27
2018-11-06T22:27:49.665Z,12.20
2018-11-06T22:30:18.827Z,5.50
2018-11-06T22:32:48.222Z,5.30
2018-11-06T22:35:18.193Z,9.37
2018-11-06T22:37:47.342Z,5.77
2018-11-06T22:40:17.870Z,6.47
2018-11-06T22:42:46.970Z,9.63
2018-11-06T22:45:17.140Z,7.80
2018-11-06T22:47:46.987Z,8.10
2018-11-06T22:50:17.357Z,9.20
2018-11-06T22:52:48.047Z,11.00
2018-11-06T22:55:17.755Z,13.30
2018-11-06T22:57:46.903Z,14.67
2018-11-06T23:00:18.709Z,11.23
2018-11-06T23:02:47.908Z,12.90
2018-11-06T23:05:17.163Z,11.10
2018-11-06T23:07:51.836Z,12.43
2018-11-06T23:10:21.046Z,11.67
2018-11-06T23:12:50.219Z,10.70
2018-11-06T23:15:19.596Z,14.93
2018-11-06T23:17:48.786Z,9.50
2018-11-06T23:20:17.937Z,8.00
2018-11-06T23:22:47.657Z,11.77
2018-11-06T23:25:16.846Z,9.77
2018-11-06T23:27:45.947Z,9.63
2018-11-06T23:30:15.841Z,10.17
2018-11-06T23:32:44.949Z,9.70
2018-11-06T23:35:14.853Z,11.77
2018-11-06T23:37:44.229Z,9.90
2018-11-06T23:40:13.340Z,8.90
2018-11-06T23:42:43.257Z,11.60
2018-11-06T23:45:12.605Z,11.00
2018-11-06T23:47:41.767Z,14.27
2018-11-06T23:50:11.203Z,10.57
2018-11-06T23:52:41.064Z,13.77
2018-11-06T23:55:10.780Z,8.93
2018-11-06T23:57:39.909Z,9.07
